Weather at Boryspil International Airport

Public forecast

Using degrees Celsius for public forecast. Weather courtesy of forecast.io.

Closest aviation weather report (METAR) to Boryspil International Airport

Report is more than 6 hours old.

Closest report is Gomel Airport, 131.1 nm (242.8 km) N.

2022/11/14 15:30 (retrieved 2 years ago)

UMGG 141530Z 34003MPS 9999 OVC019 04/01 Q1029 NOSIG

Closest aviation forecast (TAF) to Boryspil International Airport

Forecast is more than 12 hours old.

Closest forecast is Gomel Airport, 131.1 nm (242.8 km) N.

2023/02/22 18:22 (retrieved 1 year ago)

TAF UMGG 221657Z 2218/2318 35005MPS 9999 SCT015 TEMPO 2218/2305 02004MPS 1200 BR BKN005 BECMG 2305/2306 VRB02MPS TEMPO 2305/2310 2000 BR SCT004 BECMG 2310/2312 20004MPS TEMPO 2312/2318 18006MPS